createdAt,value
2022-11-02T00:05:26.253Z,19.82
2022-11-02T00:15:33.077Z,19.82
2022-11-02T00:25:38.840Z,19.81
2022-11-02T00:35:46.403Z,19.81
2022-11-02T00:45:52.305Z,19.82
2022-11-02T00:55:59.880Z,19.81
2022-11-02T01:06:05.822Z,19.81
2022-11-02T01:16:13.857Z,19.81
2022-11-02T01:26:19.696Z,19.82
2022-11-02T01:36:27.392Z,19.82
2022-11-02T01:46:32.898Z,19.80
2022-11-02T01:56:40.648Z,19.80
2022-11-02T02:06:46.409Z,19.80
2022-11-02T02:16:54.098Z,19.78
2022-11-02T02:26:59.702Z,19.78
2022-11-02T02:37:08.141Z,19.77
2022-11-02T02:47:13.585Z,19.77
2022-11-02T02:57:21.236Z,19.76
2022-11-02T03:07:31.034Z,19.75
2022-11-02T03:17:39.342Z,19.75
2022-11-02T03:27:44.837Z,19.76
2022-11-02T03:37:52.360Z,19.75
2022-11-02T03:47:58.164Z,19.75
2022-11-02T03:58:06.228Z,19.75
2022-11-02T04:08:12.572Z,19.75
2022-11-02T04:18:20.495Z,19.73
2022-11-02T04:28:26.273Z,19.72
2022-11-02T04:38:33.724Z,19.72
2022-11-02T04:48:39.451Z,19.71
2022-11-02T04:58:46.433Z,19.71
2022-11-02T05:08:52.014Z,19.72
2022-11-02T05:18:59.709Z,19.72
2022-11-02T05:29:05.491Z,19.73
2022-11-02T05:39:13.041Z,19.73
2022-11-02T05:49:19.043Z,19.75
2022-11-02T05:59:26.505Z,19.75
2022-11-02T06:09:32.388Z,19.75
2022-11-02T06:19:40.075Z,19.77
2022-11-02T06:29:45.899Z,19.77
2022-11-02T06:39:53.370Z,19.78
2022-11-02T06:49:59.056Z,19.78
2022-11-02T07:00:06.754Z,19.85
2022-11-02T07:10:13.083Z,19.85
2022-11-02T07:20:20.535Z,19.84
2022-11-02T07:30:26.250Z,19.84
2022-11-02T07:40:34.170Z,19.86
2022-11-02T07:50:40.522Z,19.86
2022-11-02T08:00:47.775Z,19.82
2022-11-02T08:10:53.036Z,19.82
2022-11-02T08:21:00.094Z,19.91
2022-11-02T08:31:05.944Z,19.91
2022-11-02T08:41:14.003Z,20.10
2022-11-02T08:51:19.437Z,20.10
2022-11-02T09:01:26.473Z,20.08
2022-11-02T09:11:32.221Z,20.05
2022-11-02T09:21:39.922Z,20.04
2022-11-02T09:31:45.157Z,20.00
2022-11-02T09:41:52.768Z,19.96
2022-11-02T09:51:58.684Z,19.96
2022-11-02T10:02:05.770Z,19.98
2022-11-02T10:12:11.165Z,20.18
2022-11-02T10:22:18.820Z,20.18
2022-11-02T10:32:24.349Z,20.21
2022-11-02T10:42:31.632Z,20.23
2022-11-02T10:52:37.005Z,20.20
2022-11-02T11:02:44.400Z,20.17
2022-11-02T11:12:50.094Z,20.18
2022-11-02T11:22:58.547Z,20.28
2022-11-02T11:33:05.038Z,20.28
2022-11-02T11:43:11.138Z,20.27
2022-11-02T11:53:17.028Z,20.28
2022-11-02T12:03:22.966Z,20.46
2022-11-02T12:13:28.649Z,20.46
2022-11-02T12:23:34.328Z,20.54
2022-11-02T12:33:40.231Z,20.60
2022-11-02T12:43:45.955Z,20.76
2022-11-02T12:53:51.137Z,20.76
2022-11-02T13:03:56.808Z,20.81
2022-11-02T13:14:02.962Z,20.84
2022-11-02T13:24:08.273Z,20.88
2022-11-02T13:34:13.635Z,20.88
2022-11-02T13:44:19.218Z,20.98
2022-11-02T13:54:25.139Z,21.00
2022-11-02T14:04:30.752Z,21.02
2022-11-02T14:14:36.625Z,21.02
2022-11-02T14:24:42.440Z,21.02
2022-11-02T14:34:50.836Z,20.95
2022-11-02T14:44:57.166Z,20.88
2022-11-02T14:55:02.621Z,20.88
2022-11-02T15:05:08.188Z,20.82
2022-11-02T15:15:13.859Z,20.76
2022-11-02T15:25:19.756Z,20.71
2022-11-02T15:35:25.213Z,20.67
2022-11-02T15:45:47.744Z,20.63
2022-11-02T15:55:42.227Z,20.63
2022-11-02T16:05:49.844Z,20.59
2022-11-02T16:15:55.684Z,20.54
2022-11-02T16:26:03.318Z,20.23
2022-11-02T16:36:08.481Z,20.23
2022-11-02T16:46:15.660Z,19.84
2022-11-02T16:56:21.487Z,19.92
2022-11-02T17:06:29.460Z,20.03
2022-11-02T17:16:35.513Z,20.14
2022-11-02T17:26:41.218Z,20.14
2022-11-02T17:36:46.720Z,20.17
2022-11-02T17:46:52.415Z,20.21
2022-11-02T17:56:58.091Z,20.21
2022-11-02T18:07:03.690Z,20.18
2022-11-02T18:17:09.560Z,20.17
2022-11-02T18:27:15.355Z,20.13
2022-11-02T18:37:21.052Z,20.13
2022-11-02T18:47:26.544Z,20.13
2022-11-02T18:57:32.108Z,20.09
2022-11-02T19:07:37.685Z,20.14
2022-11-02T19:17:43.713Z,20.18
2022-11-02T19:27:49.370Z,20.18
2022-11-02T19:37:55.007Z,20.16
2022-11-02T19:48:00.680Z,20.12
2022-11-02T19:58:06.700Z,20.12
2022-11-02T20:08:12.828Z,20.21
2022-11-02T20:18:20.021Z,20.21
2022-11-02T20:28:26.305Z,20.21
2022-11-02T20:38:32.051Z,20.17
2022-11-02T20:48:37.809Z,20.14
2022-11-02T20:58:43.494Z,20.12
2022-11-02T21:08:49.492Z,20.13
2022-11-02T21:18:54.938Z,20.13
2022-11-02T21:29:00.590Z,20.10
2022-11-02T21:39:06.148Z,20.08
2022-11-02T21:49:12.147Z,20.07
2022-11-02T21:59:17.862Z,20.04
2022-11-02T22:09:23.470Z,20.04
2022-11-02T22:19:29.516Z,20.02
2022-11-02T22:29:35.247Z,20.02
2022-11-02T22:39:41.215Z,19.99
2022-11-02T22:49:46.788Z,19.98
2022-11-02T22:59:52.444Z,19.96
2022-11-02T23:09:57.906Z,19.96
2022-11-02T23:20:03.478Z,19.94
2022-11-02T23:30:09.169Z,19.92
2022-11-02T23:40:14.576Z,19.92
2022-11-02T23:50:20.130Z,19.90
